Time;durP1;ratioP1;P1;durP2;ratioP2;P2;SDS_P1;SDS_P2;PMS_P1;PMS_P2;Temp;Humidity;BMP_temperature;BMP_pressure;BME280_temperature;BME280_humidity;BME280_pressure;Samples;Min_cycle;Max_cycle;Signal;HPM_P1;HPM_P2
2023/02/03 00:01:32;;;;;;;3.85;2.00;;;;;;;;;;5049845;28;20032;-47
2023/02/03 00:03:58;;;;;;;5.40;1.90;;;;;;;;;;5048780;28;20025;-48
2023/02/03 00:06:25;;;;;;;3.67;1.98;;;;;;;;;;5049809;28;20439;-48
2023/02/03 00:08:58;;;;;;;5.50;2.50;;;;;;;;;;5048631;28;20029;-48
2023/02/03 00:11:24;;;;;;;4.55;2.42;;;;;;;;;;5049392;28;20033;-47
2023/02/03 00:13:50;;;;;;;3.70;2.47;;;;;;;;;;5048763;28;20041;-48
2023/02/03 00:16:16;;;;;;;5.90;2.85;;;;;;;;;;5049464;28;20206;-51
2023/02/03 00:18:42;;;;;;;5.32;2.58;;;;;;;;;;5048994;28;20158;-50
2023/02/03 00:21:08;;;;;;;5.85;2.40;;;;;;;;;;5049265;28;20025;-47
2023/02/03 00:23:35;;;;;;;4.20;1.90;;;;;;;;;;5049756;28;20111;-47
2023/02/03 00:26:11;;;;;;;3.08;1.83;;;;;;;;;;5049195;28;20029;-51
2023/02/03 00:28:37;;;;;;;3.58;1.85;;;;;;;;;;5048987;28;20029;-48
2023/02/03 00:31:03;;;;;;;3.83;1.88;;;;;;;;;;5049531;28;20541;-48
2023/02/03 00:33:29;;;;;;;3.38;1.98;;;;;;;;;;5048783;28;20555;-47
2023/02/03 00:35:55;;;;;;;4.07;1.80;;;;;;;;;;5048928;28;20075;-50
2023/02/03 00:38:21;;;;;;;5.05;2.03;;;;;;;;;;5049250;28;20098;-48
2023/02/03 00:40:53;;;;;;;3.47;1.77;;;;;;;;;;5047865;28;20112;-49
2023/02/03 00:43:20;;;;;;;3.60;2.25;;;;;;;;;;5048697;28;20127;-47
2023/02/03 00:45:46;;;;;;;5.93;1.90;;;;;;;;;;5048613;28;20033;-49
2023/02/03 00:48:13;;;;;;;4.07;2.10;;;;;;;;;;5048774;28;20036;-48
2023/02/03 00:50:39;;;;;;;5.13;2.03;;;;;;;;;;5048394;28;20056;-50
2023/02/03 00:53:05;;;;;;;4.30;2.10;;;;;;;;;;5049102;28;20060;-50
2023/02/03 00:55:31;;;;;;;5.65;2.25;;;;;;;;;;5048716;28;20035;-47
2023/02/03 00:57:58;;;;;;;6.20;2.40;;;;;;;;;;5048534;28;20032;-50
2023/02/03 01:00:24;;;;;;;4.95;1.92;;;;;;;;;;5048230;28;20033;-48
2023/02/03 01:02:50;;;;;;;4.13;1.92;;;;;;;;;;5048259;28;20031;-49
2023/02/03 06:12:39;;;;;;;17.70;6.65;;;;;;;;;;5046180;28;20075;-48
2023/02/03 06:15:05;;;;;;;14.15;6.18;;;;;;;;;;5042264;28;20064;-46
2023/02/03 06:17:31;;;;;;;16.77;5.90;;;;;;;;;;5039010;28;20127;-46
2023/02/03 06:19:59;;;;;;;15.25;5.85;;;;;;;;;;5028506;28;20029;-47
2023/02/03 06:22:25;;;;;;;14.35;5.10;;;;;;;;;;5028291;28;20043;-47
2023/02/03 06:24:51;;;;;;;9.00;4.47;;;;;;;;;;5028554;28;20061;-48
2023/02/03 06:27:17;;;;;;;10.93;4.78;;;;;;;;;;5028566;28;20434;-47
2023/02/03 06:29:43;;;;;;;11.73;5.97;;;;;;;;;;5026853;28;20409;-48
2023/02/03 06:32:09;;;;;;;11.60;5.07;;;;;;;;;;5027686;28;20539;-48
2023/02/03 06:34:35;;;;;;;10.07;4.90;;;;;;;;;;5029096;28;20041;-47
2023/02/03 06:37:01;;;;;;;7.28;3.75;;;;;;;;;;5048272;28;20719;-50
2023/02/03 06:39:27;;;;;;;5.60;2.88;;;;;;;;;;5039170;28;20417;-50
2023/02/03 06:41:54;;;;;;;5.38;2.95;;;;;;;;;;5028290;28;20041;-50
2023/02/03 06:44:20;;;;;;;6.22;3.00;;;;;;;;;;5028450;28;20041;-48
2023/02/03 06:46:47;;;;;;;6.40;2.38;;;;;;;;;;5028294;28;20515;-50
2023/02/03 06:49:13;;;;;;;5.07;2.45;;;;;;;;;;5028880;28;20017;-48
2023/02/03 06:51:39;;;;;;;7.00;3.60;;;;;;;;;;5028097;28;20405;-48
2023/02/03 06:54:06;;;;;;;6.55;2.67;;;;;;;;;;5028265;28;20117;-47
2023/02/03 06:56:32;;;;;;;5.13;2.03;;;;;;;;;;5028167;28;20030;-49
2023/02/03 06:58:58;;;;;;;4.07;2.38;;;;;;;;;;5027700;28;20037;-49
2023/02/03 07:01:28;;;;;;;3.97;2.45;;;;;;;;;;5026745;28;20443;-48
2023/02/03 07:03:57;;;;;;;5.15;2.50;;;;;;;;;;5027155;28;20064;-50
2023/02/03 07:06:27;;;;;;;5.05;2.83;;;;;;;;;;5026812;28;20025;-46
2023/02/03 07:08:54;;;;;;;6.18;3.10;;;;;;;;;;5026287;28;20033;-48
2023/02/03 07:11:21;;;;;;;7.20;4.05;;;;;;;;;;5026298;28;20038;-47
2023/02/03 07:13:47;;;;;;;4.63;3.40;;;;;;;;;;5026502;28;20048;-47
2023/02/03 07:16:14;;;;;;;5.45;2.80;;;;;;;;;;5045058;28;20045;-47
2023/02/03 07:18:40;;;;;;;6.35;3.10;;;;;;;;;;5046754;28;20182;-47
2023/02/03 07:21:06;;;;;;;4.90;2.85;;;;;;;;;;5046026;28;20036;-49
2023/02/03 07:23:32;;;;;;;7.03;3.40;;;;;;;;;;5046292;28;20036;-47
2023/02/03 07:25:59;;;;;;;5.32;3.20;;;;;;;;;;5046750;28;20551;-51
2023/02/03 07:28:25;;;;;;;5.93;3.30;;;;;;;;;;5048170;28;20032;-49
2023/02/03 07:30:51;;;;;;;6.68;3.55;;;;;;;;;;5047282;28;20028;-47
2023/02/03 07:33:17;;;;;;;9.02;3.53;;;;;;;;;;5047426;28;20025;-47
2023/02/03 07:35:43;;;;;;;7.80;3.55;;;;;;;;;;5046105;28;20114;-47
2023/02/03 07:38:11;;;;;;;6.63;3.13;;;;;;;;;;5047541;28;20049;-47
2023/02/03 07:40:38;;;;;;;8.50;3.58;;;;;;;;;;5047153;28;20021;-49
2023/02/03 07:43:04;;;;;;;6.95;3.30;;;;;;;;;;5047325;28;20032;-49
2023/02/03 07:45:30;;;;;;;5.65;3.10;;;;;;;;;;5043843;28;20030;-48
2023/02/03 07:47:56;;;;;;;7.72;3.17;;;;;;;;;;5046657;28;20028;-48
2023/02/03 07:50:22;;;;;;;10.90;3.63;;;;;;;;;;5046475;28;20506;-48
2023/02/03 07:52:49;;;;;;;9.00;4.10;;;;;;;;;;5048030;28;20025;-49
2023/02/03 07:55:15;;;;;;;10.38;4.82;;;;;;;;;;5051097;28;20058;-46
2023/02/03 07:57:43;;;;;;;9.25;4.95;;;;;;;;;;5050206;28;20032;-48
2023/02/03 08:00:10;;;;;;;8.48;4.50;;;;;;;;;;5050011;28;20114;-49
2023/02/03 08:02:36;;;;;;;8.45;4.70;;;;;;;;;;5049688;28;20112;-48
2023/02/03 08:05:02;;;;;;;8.63;5.10;;;;;;;;;;5049371;28;20096;-47
2023/02/03 08:07:28;;;;;;;11.32;4.70;;;;;;;;;;5050688;28;20051;-48
2023/02/03 08:09:55;;;;;;;8.75;4.88;;;;;;;;;;5050627;28;20029;-50
2023/02/03 08:12:21;;;;;;;7.60;3.92;;;;;;;;;;5040769;28;20137;-47
2023/02/03 08:14:47;;;;;;;7.38;4.03;;;;;;;;;;5051550;28;20041;-49
2023/02/03 08:17:13;;;;;;;8.05;4.50;;;;;;;;;;5051551;28;20033;-49
2023/02/03 08:19:39;;;;;;;8.73;4.85;;;;;;;;;;5052157;28;20119;-47
2023/02/03 08:22:05;;;;;;;11.30;5.30;;;;;;;;;;5051563;28;20029;-49
2023/02/03 08:24:31;;;;;;;10.05;4.63;;;;;;;;;;5051747;28;20403;-50
2023/02/03 08:26:58;;;;;;;8.43;4.60;;;;;;;;;;5051135;28;20021;-47
2023/02/03 08:29:24;;;;;;;7.13;3.40;;;;;;;;;;5050715;28;20420;-48
2023/02/03 08:31:50;;;;;;;7.97;3.47;;;;;;;;;;5050930;28;20033;-49
2023/02/03 08:34:16;;;;;;;8.43;4.30;;;;;;;;;;5051373;28;20528;-48
2023/02/03 08:36:43;;;;;;;9.50;4.40;;;;;;;;;;5050925;28;20033;-47
2023/02/03 08:39:09;;;;;;;7.32;4.05;;;;;;;;;;5048731;28;20033;-48
2023/02/03 08:41:36;;;;;;;5.18;3.20;;;;;;;;;;5048445;28;20036;-48
2023/02/03 08:44:02;;;;;;;7.47;3.45;;;;;;;;;;5048520;28;20112;-47
2023/02/03 08:46:28;;;;;;;6.38;3.22;;;;;;;;;;5050031;28;20496;-47
2023/02/03 08:48:59;;;;;;;7.05;3.75;;;;;;;;;;5049585;28;20025;-48
2023/02/03 08:51:25;;;;;;;9.65;4.18;;;;;;;;;;5050274;28;20044;-50
2023/02/03 08:53:51;;;;;;;6.75;3.67;;;;;;;;;;5048885;28;20036;-47
2023/02/03 08:56:18;;;;;;;5.68;3.30;;;;;;;;;;5048678;28;20037;-48
2023/02/03 08:58:44;;;;;;;4.55;3.17;;;;;;;;;;5048695;28;20420;-51
2023/02/03 09:01:12;;;;;;;6.68;3.70;;;;;;;;;;5048073;28;20033;-47
2023/02/03 09:03:38;;;;;;;6.75;3.20;;;;;;;;;;5047741;28;20035;-47
2023/02/03 09:06:05;;;;;;;5.35;3.20;;;;;;;;;;5048579;28;20457;-48
2023/02/03 09:08:31;;;;;;;6.03;3.15;;;;;;;;;;5048488;28;20035;-47
2023/02/03 09:10:57;;;;;;;5.82;3.22;;;;;;;;;;5048514;28;20051;-50
2023/02/03 09:13:24;;;;;;;5.32;3.22;;;;;;;;;;5048640;28;20060;-50
2023/02/03 09:15:50;;;;;;;5.75;3.08;;;;;;;;;;5048215;28;20052;-47
2023/02/03 09:18:16;;;;;;;5.93;2.85;;;;;;;;;;5048653;28;20025;-49
2023/02/03 09:20:42;;;;;;;4.32;2.80;;;;;;;;;;5048415;28;20013;-48
2023/02/03 09:23:08;;;;;;;4.45;2.90;;;;;;;;;;5047742;28;20087;-51
2023/02/03 09:25:34;;;;;;;3.75;2.08;;;;;;;;;;5048439;28;20061;-47
2023/02/03 09:28:03;;;;;;;4.45;2.13;;;;;;;;;;5048093;28;20397;-47
2023/02/03 09:30:30;;;;;;;6.18;2.45;;;;;;;;;;5048234;28;20429;-49
2023/02/03 09:32:57;;;;;;;3.58;2.15;;;;;;;;;;5048177;28;20292;-48
2023/02/03 09:35:25;;;;;;;6.57;2.50;;;;;;;;;;5048034;28;20526;-47
2023/02/03 09:37:51;;;;;;;3.90;2.33;;;;;;;;;;5039642;28;20459;-47
2023/02/03 09:40:19;;;;;;;3.55;2.38;;;;;;;;;;5047702;28;20456;-49
2023/02/03 09:42:45;;;;;;;3.42;2.28;;;;;;;;;;5047472;28;20051;-47
2023/02/03 09:45:20;;;;;;;3.80;2.38;;;;;;;;;;5048139;28;20496;-47
2023/02/03 09:47:52;;;;;;;3.22;2.03;;;;;;;;;;5047924;28;20025;-49
2023/02/03 09:50:23;;;;;;;3.67;1.88;;;;;;;;;;5047889;28;20021;-49
2023/02/03 09:52:51;;;;;;;2.55;1.85;;;;;;;;;;5047537;28;20234;-47
2023/02/03 09:55:24;;;;;;;4.53;2.47;;;;;;;;;;5046991;28;20082;-48
2023/02/03 09:58:11;;;;;;;3.65;2.03;;;;;;;;;;5047646;28;20021;-51
2023/02/03 10:00:42;;;;;;;3.65;2.33;;;;;;;;;;5035732;28;20028;-48
2023/02/03 10:03:14;;;;;;;3.25;1.90;;;;;;;;;;5027613;28;20497;-50
2023/02/03 10:05:52;;;;;;;3.50;2.25;;;;;;;;;;5027943;28;20030;-48
2023/02/03 10:08:38;;;;;;;3.22;2.10;;;;;;;;;;5027565;28;20025;-48
2023/02/03 10:11:09;;;;;;;2.95;1.80;;;;;;;;;;5027371;28;20141;-51
2023/02/03 10:13:47;;;;;;;4.47;2.05;;;;;;;;;;5043453;28;20036;-49
2023/02/03 10:16:19;;;;;;;3.70;2.60;;;;;;;;;;5045736;28;20597;-49
2023/02/03 10:18:49;;;;;;;6.22;3.20;;;;;;;;;;5044674;28;20302;-49
2023/02/03 10:21:15;;;;;;;4.93;2.60;;;;;;;;;;5044816;28;20172;-48
2023/02/03 10:23:42;;;;;;;4.43;2.47;;;;;;;;;;5044774;28;20292;-48
2023/02/03 10:26:11;;;;;;;3.63;2.20;;;;;;;;;;5044322;28;20041;-50
2023/02/03 10:28:56;;;;;;;3.33;2.15;;;;;;;;;;5045239;28;20016;-51
2023/02/03 10:31:26;;;;;;;3.00;2.03;;;;;;;;;;5045368;28;20021;-50
2023/02/03 10:34:00;;;;;;;3.72;1.75;;;;;;;;;;5045448;28;20028;-50
2023/02/03 10:36:26;;;;;;;;;;;;;;;;;;5045617;28;20377;-50
2023/02/03 10:38:51;;;;;;;3.75;2.58;;;;;;;;;;5045093;28;19908;-48
2023/02/03 10:41:19;;;;;;;3.42;2.33;;;;;;;;;;5044935;28;20061;-50
2023/02/03 10:43:52;;;;;;;6.03;2.58;;;;;;;;;;5045563;28;20029;-49
2023/02/03 10:46:19;;;;;;;3.47;2.05;;;;;;;;;;5045245;28;20025;-51
2023/02/03 10:48:45;;;;;;;4.22;2.03;;;;;;;;;;5045047;28;20024;-51
2023/02/03 10:51:17;;;;;;;2.05;1.55;;;;;;;;;;5044958;28;20041;-48
2023/02/03 10:53:45;;;;;;;2.80;1.50;;;;;;;;;;5045293;28;20029;-48
2023/02/03 10:56:19;;;;;;;2.35;1.42;;;;;;;;;;5045055;28;20020;-48
2023/02/03 10:58:45;;;;;;;;;;;;;;;;;;5045664;28;20025;-49
2023/02/03 11:01:13;;;;;;;2.05;1.15;;;;;;;;;;5044826;28;20311;-50
2023/02/03 11:03:43;;;;;;;1.75;1.00;;;;;;;;;;5045477;28;20025;-51
2023/02/03 11:06:13;;;;;;;1.58;1.08;;;;;;;;;;5043621;28;20407;-47
2023/02/03 11:08:41;;;;;;;3.42;1.20;;;;;;;;;;5045062;28;20025;-49
2023/02/03 11:11:08;;;;;;;2.33;1.40;;;;;;;;;;5045188;28;20031;-48
2023/02/03 11:13:34;;;;;;;1.88;1.30;;;;;;;;;;5044901;28;20029;-49
2023/02/03 11:16:02;;;;;;;2.22;1.13;;;;;;;;;;5045280;28;20128;-49
2023/02/03 11:18:46;;;;;;;2.05;0.93;;;;;;;;;;5045154;28;20029;-47
2023/02/03 11:21:12;;;;;;;;;;;;;;;;;;5041763;28;20060;-50
2023/02/03 11:23:45;;;;;;;1.52;1.05;;;;;;;;;;5045789;28;19909;-50
2023/02/03 11:26:15;;;;;;;1.42;1.00;;;;;;;;;;5047880;28;20032;-51
2023/02/03 11:28:43;;;;;;;1.45;1.05;;;;;;;;;;5050134;28;20036;-47
2023/02/03 11:31:17;;;;;;;2.03;1.20;;;;;;;;;;5049430;28;20050;-51
2023/02/03 11:33:46;;;;;;;2.00;1.10;;;;;;;;;;5049777;28;20040;-50
2023/02/03 11:36:12;;;;;;;1.85;0.70;;;;;;;;;;5048871;28;20060;-51
2023/02/03 11:38:41;;;;;;;0.93;0.55;;;;;;;;;;5049929;28;20029;-48
2023/02/03 11:41:13;;;;;;;0.90;0.60;;;;;;;;;;5048722;28;20534;-48
2023/02/03 11:43:40;;;;;;;1.13;0.60;;;;;;;;;;5048734;28;20021;-49
2023/02/03 11:46:07;;;;;;;1.55;0.73;;;;;;;;;;5049002;28;20064;-52
2023/02/03 11:48:37;;;;;;;0.65;0.60;;;;;;;;;;5049929;28;20025;-47
2023/02/03 11:51:22;;;;;;;0.57;0.57;;;;;;;;;;5049679;28;20029;-48
2023/02/03 11:54:07;;;;;;;0.70;0.68;;;;;;;;;;5042976;28;20025;-47
2023/02/03 11:56:51;;;;;;;0.77;0.60;;;;;;;;;;5049842;28;20139;-51
2023/02/03 11:59:30;;;;;;;0.68;0.50;;;;;;;;;;5049548;28;20033;-51
2023/02/03 12:01:56;;;;;;;1.05;0.80;;;;;;;;;;5047860;28;20072;-48
2023/02/03 12:04:40;;;;;;;0.60;0.60;;;;;;;;;;5047996;28;20576;-50
2023/02/03 12:07:06;;;;;;;;;;;;;;;;;;5048306;28;20099;-50
2023/02/03 12:09:35;;;;;;;1.27;0.80;;;;;;;;;;5048610;28;19970;-47
2023/02/03 12:12:01;;;;;;;1.17;0.63;;;;;;;;;;5048633;28;20384;-51
2023/02/03 12:14:36;;;;;;;1.38;0.98;;;;;;;;;;5050290;28;20044;-49
2023/02/03 12:17:22;;;;;;;0.50;0.50;;;;;;;;;;5046007;28;20104;-49
2023/02/03 12:20:06;;;;;;;0.50;0.50;;;;;;;;;;5054172;28;20036;-50
2023/02/03 12:22:32;;;;;;;;;;;;;;;;;;5048207;28;20072;-49
2023/02/03 12:25:28;;;;;;;1.00;0.73;;;;;;;;;;5046855;28;19936;-51
2023/02/03 12:28:00;;;;;;;1.33;0.90;;;;;;;;;;5029927;28;20589;-49
2023/02/03 12:30:37;;;;;;;0.80;0.60;;;;;;;;;;5047271;28;20047;-49
2023/02/03 12:33:22;;;;;;;0.80;0.60;;;;;;;;;;5047516;28;20041;-49
2023/02/03 12:36:09;;;;;;;1.15;0.60;;;;;;;;;;5047689;28;20028;-51
2023/02/03 12:38:46;;;;;;;0.50;0.50;;;;;;;;;;5047655;28;20435;-49
2023/02/03 12:41:27;;;;;;;0.82;0.60;;;;;;;;;;5047655;28;20800;-49
2023/02/03 12:43:58;;;;;;;0.77;0.52;;;;;;;;;;5047316;28;20032;-51
2023/02/03 12:46:30;;;;;;;1.10;0.60;;;;;;;;;;5047460;28;20025;-50
2023/02/03 12:48:55;;;;;;;1.83;0.90;;;;;;;;;;5047467;28;20621;-50
2023/02/03 12:51:34;;;;;;;0.75;0.68;;;;;;;;;;5045942;28;20085;-49
2023/02/03 12:54:09;;;;;;;1.10;0.70;;;;;;;;;;5047141;28;20032;-50
2023/02/03 12:56:40;;;;;;;0.40;0.40;;;;;;;;;;5046847;28;20492;-49
2023/02/03 12:59:20;;;;;;;1.23;0.70;;;;;;;;;;5046763;28;20044;-49
2023/02/03 13:01:49;;;;;;;0.70;0.63;;;;;;;;;;5047548;28;20053;-51
2023/02/03 13:04:39;;;;;;;0.40;0.40;;;;;;;;;;5047659;28;20450;-47
2023/02/03 13:07:11;;;;;;;0.68;0.50;;;;;;;;;;5036418;28;20037;-47
2023/02/03 13:09:58;;;;;;;1.85;0.60;;;;;;;;;;5047150;28;20502;-49
2023/02/03 13:12:29;;;;;;;0.43;0.40;;;;;;;;;;5046643;28;20099;-50
2023/02/03 13:14:55;;;;;;;1.45;0.70;;;;;;;;;;5046678;28;20075;-50
2023/02/03 13:17:26;;;;;;;0.70;0.70;;;;;;;;;;5046727;28;20057;-49
2023/02/03 13:19:55;;;;;;;1.85;0.70;;;;;;;;;;5046673;28;20033;-49
2023/02/03 13:22:25;;;;;;;1.42;0.90;;;;;;;;;;5046404;28;20025;-50
2023/02/03 13:24:58;;;;;;;3.72;1.60;;;;;;;;;;5046369;28;20029;-49
2023/02/03 13:27:39;;;;;;;2.60;1.00;;;;;;;;;;5046384;28;20021;-49
2023/02/03 13:30:28;;;;;;;2.13;0.90;;;;;;;;;;5046556;28;20025;-49
2023/02/03 13:32:54;;;;;;;2.95;1.58;;;;;;;;;;5046459;28;20100;-49
2023/02/03 13:35:39;;;;;;;6.47;2.90;;;;;;;;;;5046200;28;20025;-51
2023/02/03 13:38:18;;;;;;;9.95;4.22;;;;;;;;;;5046145;28;20155;-51
2023/02/03 13:40:44;;;;;;;11.57;4.97;;;;;;;;;;5046351;28;20028;-51
2023/02/03 13:43:15;;;;;;;8.05;3.83;;;;;;;;;;5045905;28;20093;-52
2023/02/03 13:45:44;;;;;;;7.05;3.15;;;;;;;;;;5046450;28;20025;-52
2023/02/03 13:48:22;;;;;;;4.47;2.50;;;;;;;;;;5045260;28;20599;-51
2023/02/03 13:50:49;;;;;;;3.20;1.90;;;;;;;;;;5046049;28;20025;-48
2023/02/03 13:53:22;;;;;;;4.35;1.60;;;;;;;;;;5046398;28;20029;-51
2023/02/03 13:55:58;;;;;;;3.10;1.30;;;;;;;;;;5045574;28;20044;-49
2023/02/03 13:58:37;;;;;;;2.47;1.08;;;;;;;;;;5045700;28;20538;-48
2023/02/03 14:01:22;;;;;;;2.45;1.13;;;;;;;;;;5045538;28;20045;-49
2023/02/03 14:03:48;;;;;;;1.45;1.13;;;;;;;;;;5045813;28;20078;-48
2023/02/03 14:06:33;;;;;;;2.53;1.10;;;;;;;;;;5046052;28;20063;-50
2023/02/03 14:08:59;;;;;;;2.33;1.20;;;;;;;;;;5044440;28;20453;-51
2023/02/03 14:11:34;;;;;;;1.00;0.80;;;;;;;;;;5045806;28;20064;-49
2023/02/03 14:14:03;;;;;;;2.30;0.80;;;;;;;;;;5044953;28;20036;-48
2023/02/03 14:16:34;;;;;;;2.33;1.20;;;;;;;;;;5025616;28;20041;-49
2023/02/03 14:19:00;;;;;;;2.05;1.40;;;;;;;;;;5025757;28;20464;-49
2023/02/03 14:21:30;;;;;;;2.60;1.40;;;;;;;;;;5025302;28;20117;-48
2023/02/03 14:23:57;;;;;;;1.48;0.98;;;;;;;;;;5025089;28;20022;-52
2023/02/03 14:26:28;;;;;;;3.40;1.77;;;;;;;;;;5025389;28;20025;-47
2023/02/03 14:28:54;;;;;;;4.40;1.60;;;;;;;;;;5025438;28;20017;-48
2023/02/03 14:31:21;;;;;;;5.28;2.00;;;;;;;;;;5025414;28;20141;-47
2023/02/03 14:33:48;;;;;;;3.47;1.70;;;;;;;;;;5025336;28;20034;-48
2023/02/03 14:36:32;;;;;;;4.88;2.08;;;;;;;;;;5025898;28;20039;-50
2023/02/03 14:39:00;;;;;;;3.80;1.50;;;;;;;;;;5025098;28;20060;-50
2023/02/03 14:41:37;;;;;;;3.55;1.90;;;;;;;;;;5025131;28;20034;-47
2023/02/03 14:44:03;;;;;;;3.45;1.60;;;;;;;;;;5025211;28;20552;-49
2023/02/03 14:46:44;;;;;;;2.45;1.20;;;;;;;;;;5025096;28;20029;-51
2023/02/03 14:49:22;;;;;;;7.28;3.83;;;;;;;;;;5025121;28;20096;-50
2023/02/03 14:51:55;;;;;;;6.10;3.40;;;;;;;;;;5025008;28;20037;-48
2023/02/03 14:54:21;;;;;;;11.35;5.60;;;;;;;;;;5024648;28;20029;-49
2023/02/03 14:59:40;;;;;;;9.60;3.80;;;;;;;;;;5024782;28;20155;-51
2023/02/03 15:02:06;;;;;;;5.97;3.30;;;;;;;;;;5024571;28;20044;-50
2023/02/03 15:04:33;;;;;;;6.60;3.78;;;;;;;;;;5025000;28;20109;-48
2023/02/03 15:06:59;;;;;;;5.22;2.88;;;;;;;;;;5024734;28;20408;-49
2023/02/03 15:09:25;;;;;;;5.38;2.95;;;;;;;;;;5024841;28;20060;-52
2023/02/03 15:11:51;;;;;;;4.32;2.72;;;;;;;;;;5024714;28;20037;-48
2023/02/03 15:14:20;;;;;;;4.15;1.90;;;;;;;;;;5025526;28;20030;-47
2023/02/03 15:16:47;;;;;;;3.95;2.10;;;;;;;;;;5025526;28;20408;-49
2023/02/03 15:19:18;;;;;;;2.38;1.38;;;;;;;;;;5025425;28;20059;-52
2023/02/03 15:21:44;;;;;;;3.50;1.65;;;;;;;;;;5024937;28;20073;-50
2023/02/03 15:24:13;;;;;;;2.67;1.60;;;;;;;;;;5024739;28;20021;-49
2023/02/03 15:26:44;;;;;;;2.47;1.73;;;;;;;;;;5024790;28;20041;-48
2023/02/03 15:29:18;;;;;;;1.60;1.35;;;;;;;;;;5024851;28;20556;-48
2023/02/03 15:31:47;;;;;;;2.33;1.42;;;;;;;;;;5025121;28;20429;-51
2023/02/03 15:34:38;;;;;;;3.55;1.80;;;;;;;;;;5025179;28;20408;-50
2023/02/03 15:37:09;;;;;;;2.42;1.30;;;;;;;;;;5014956;28;20187;-51
2023/02/03 15:39:58;;;;;;;2.35;1.77;;;;;;;;;;5024765;28;20028;-50
2023/02/03 15:42:44;;;;;;;2.38;1.55;;;;;;;;;;5014116;28;20041;-47
2023/02/03 15:45:16;;;;;;;1.67;1.30;;;;;;;;;;4984449;28;20037;-48
2023/02/03 15:47:50;;;;;;;1.20;1.00;;;;;;;;;;5024563;28;20469;-48
2023/02/03 15:50:25;;;;;;;3.22;1.52;;;;;;;;;;5025341;28;20022;-50
2023/02/03 15:52:53;;;;;;;2.00;1.20;;;;;;;;;;5024638;28;20037;-48
2023/02/03 15:55:34;;;;;;;1.73;1.00;;;;;;;;;;5024908;28;20488;-51
2023/02/03 15:58:00;;;;;;;1.33;1.10;;;;;;;;;;5023262;28;20036;-50
2023/02/03 16:00:31;;;;;;;2.72;1.20;;;;;;;;;;5023901;28;20017;-48
2023/02/03 16:02:59;;;;;;;1.42;1.20;;;;;;;;;;5022557;28;20030;-50
2023/02/03 16:05:25;;;;;;;2.08;1.30;;;;;;;;;;5023506;28;20519;-48
2023/02/03 16:07:52;;;;;;;2.17;1.13;;;;;;;;;;5022150;28;20061;-48
2023/02/03 16:10:32;;;;;;;2.08;1.20;;;;;;;;;;5044117;28;20021;-48
2023/02/03 16:13:18;;;;;;;1.48;1.20;;;;;;;;;;5035118;28;20036;-48
2023/02/03 16:15:44;;;;;;;1.77;1.25;;;;;;;;;;5027087;28;20057;-50
2023/02/03 16:18:16;;;;;;;2.60;1.30;;;;;;;;;;5025753;28;20072;-46
2023/02/03 16:20:49;;;;;;;1.58;1.20;;;;;;;;;;5026929;28;20603;-49
2023/02/03 16:23:20;;;;;;;2.05;1.08;;;;;;;;;;5026681;28;20037;-51
2023/02/03 16:26:02;;;;;;;1.65;1.05;;;;;;;;;;5027795;28;20041;-51
2023/02/03 16:50:50;;;;;;;6.55;3.58;;;;;;;;;;5027340;28;20144;-46
2023/02/03 16:53:21;;;;;;;5.38;2.65;;;;;;;;;;5025779;28;20033;-48
2023/02/03 16:55:49;;;;;;;2.97;1.98;;;;;;;;;;5025314;28;20041;-49
2023/02/03 16:58:16;;;;;;;5.32;2.30;;;;;;;;;;5025886;28;20032;-48
2023/02/03 17:00:43;;;;;;;3.47;2.00;;;;;;;;;;5026192;28;20026;-51
2023/02/03 17:03:13;;;;;;;3.40;2.20;;;;;;;;;;5025791;28;20435;-50
2023/02/03 17:05:41;;;;;;;4.30;2.55;;;;;;;;;;5026142;28;20557;-49
2023/02/03 17:08:07;;;;;;;3.90;2.92;;;;;;;;;;5024856;28;20028;-47
2023/02/03 17:10:34;;;;;;;4.78;2.95;;;;;;;;;;5026081;28;20029;-49
2023/02/03 17:13:00;;;;;;;9.52;4.00;;;;;;;;;;5025780;28;20033;-49
2023/02/03 17:15:26;;;;;;;6.60;3.67;;;;;;;;;;5037734;28;20462;-51
2023/02/03 17:17:53;;;;;;;6.00;3.00;;;;;;;;;;5045417;28;20174;-47
2023/02/03 17:20:20;;;;;;;4.95;2.45;;;;;;;;;;5045594;28;20025;-48
2023/02/03 17:22:46;;;;;;;3.17;1.95;;;;;;;;;;5042359;28;20026;-47
2023/02/03 17:25:12;;;;;;;3.42;1.77;;;;;;;;;;5045084;28;20024;-48
2023/02/03 17:27:38;;;;;;;2.75;1.40;;;;;;;;;;5044418;28;20067;-48
2023/02/03 17:30:04;;;;;;;3.10;1.55;;;;;;;;;;5044896;28;20048;-47
2023/02/03 17:32:30;;;;;;;2.70;1.75;;;;;;;;;;5045164;28;20037;-50
2023/02/03 17:34:56;;;;;;;6.97;2.08;;;;;;;;;;5043821;28;20079;-47
2023/02/03 17:37:22;;;;;;;4.72;2.00;;;;;;;;;;5044705;28;20286;-47
2023/02/03 17:39:49;;;;;;;3.28;1.80;;;;;;;;;;5045798;28;20582;-49
2023/02/03 17:42:15;;;;;;;3.10;1.80;;;;;;;;;;5045124;28;20055;-49
2023/02/03 17:44:41;;;;;;;3.80;1.75;;;;;;;;;;5045100;28;20033;-48
2023/02/03 17:47:07;;;;;;;7.57;2.63;;;;;;;;;;5044763;28;20104;-48
2023/02/03 17:49:33;;;;;;;8.00;3.88;;;;;;;;;;5045017;28;20037;-48
2023/02/03 17:51:59;;;;;;;7.05;3.80;;;;;;;;;;5044726;28;20029;-48
2023/02/03 17:54:25;;;;;;;7.22;3.72;;;;;;;;;;5043508;28;20108;-50
2023/02/03 17:56:52;;;;;;;6.18;2.90;;;;;;;;;;5045049;28;20032;-49
2023/02/03 17:59:18;;;;;;;6.88;2.83;;;;;;;;;;5045072;28;20508;-49
2023/02/03 18:01:45;;;;;;;5.68;2.60;;;;;;;;;;5043905;28;20037;-47
2023/02/03 18:04:13;;;;;;;5.13;2.70;;;;;;;;;;5044550;28;20024;-48
2023/02/03 18:06:39;;;;;;;4.28;2.50;;;;;;;;;;5043174;28;20029;-48
2023/02/03 18:09:08;;;;;;;9.35;4.10;;;;;;;;;;5047787;28;20029;-48
2023/02/03 18:11:35;;;;;;;12.95;5.90;;;;;;;;;;5043749;28;20028;-50
2023/02/03 18:14:01;;;;;;;11.25;5.50;;;;;;;;;;5041588;28;20124;-46
2023/02/03 18:16:31;;;;;;;19.13;8.02;;;;;;;;;;5024506;28;20544;-48
2023/02/03 18:18:59;;;;;;;16.52;7.53;;;;;;;;;;5024644;28;20472;-50
2023/02/03 18:21:26;;;;;;;17.75;7.80;;;;;;;;;;5022925;28;20029;-47
2023/02/03 18:23:55;;;;;;;10.88;5.80;;;;;;;;;;5024768;28;20033;-48
2023/02/03 18:26:22;;;;;;;13.65;5.82;;;;;;;;;;5024457;28;20029;-51
2023/02/03 18:28:51;;;;;;;8.23;4.63;;;;;;;;;;5024760;28;20029;-48
2023/02/03 18:31:17;;;;;;;7.00;4.05;;;;;;;;;;5023108;28;20021;-48
2023/02/03 18:33:45;;;;;;;7.85;3.42;;;;;;;;;;5024535;28;20026;-51
2023/02/03 18:36:14;;;;;;;5.53;3.20;;;;;;;;;;5024068;28;20026;-48
2023/02/03 18:38:41;;;;;;;7.90;4.72;;;;;;;;;;5024186;28;20040;-48
2023/02/03 18:41:13;;;;;;;6.05;3.60;;;;;;;;;;5024041;28;20504;-47
2023/02/03 18:43:39;;;;;;;5.88;3.22;;;;;;;;;;5024032;28;20030;-49
2023/02/03 18:46:09;;;;;;;2.95;2.15;;;;;;;;;;5022412;28;20032;-47
2023/02/03 18:48:35;;;;;;;3.25;2.05;;;;;;;;;;5024028;28;20499;-47
2023/02/03 18:51:01;;;;;;;2.88;1.95;;;;;;;;;;5023546;28;20399;-50
2023/02/03 18:53:28;;;;;;;2.42;1.70;;;;;;;;;;5037847;28;20163;-48
2023/02/03 18:55:54;;;;;;;3.10;1.60;;;;;;;;;;5023715;28;20109;-50
2023/02/03 18:58:20;;;;;;;2.10;1.42;;;;;;;;;;5024084;28;20045;-48
2023/02/03 19:00:46;;;;;;;2.83;1.65;;;;;;;;;;5024304;28;20519;-48
2023/02/03 19:03:13;;;;;;;1.90;1.25;;;;;;;;;;5022329;28;21364;-47
2023/02/03 19:05:39;;;;;;;2.47;1.40;;;;;;;;;;5023054;28;20025;-48
2023/02/03 19:08:05;;;;;;;3.65;1.52;;;;;;;;;;5021917;28;20037;-48
2023/02/03 19:10:31;;;;;;;3.92;2.08;;;;;;;;;;5023864;28;20382;-47
2023/02/03 19:12:58;;;;;;;3.47;1.63;;;;;;;;;;5023185;28;20037;-50
2023/02/03 19:15:24;;;;;;;5.97;2.22;;;;;;;;;;5035205;28;20047;-51
2023/02/03 19:17:51;;;;;;;4.43;2.55;;;;;;;;;;5043460;28;20059;-47
2023/02/03 19:20:17;;;;;;;7.65;3.67;;;;;;;;;;5044304;28;20028;-47
2023/02/03 19:22:43;;;;;;;6.40;3.63;;;;;;;;;;5043133;28;20032;-50
2023/02/03 19:25:09;;;;;;;8.48;4.35;;;;;;;;;;5041977;28;20381;-46
2023/02/03 19:27:36;;;;;;;6.22;3.65;;;;;;;;;;5043217;28;20032;-47
2023/02/03 19:30:03;;;;;;;7.22;2.92;;;;;;;;;;5041550;28;20052;-48
2023/02/03 19:32:31;;;;;;;8.57;3.97;;;;;;;;;;5043139;28;20039;-49
2023/02/03 19:34:58;;;;;;;6.60;3.22;;;;;;;;;;5042901;28;20407;-48
2023/02/03 19:37:25;;;;;;;7.97;3.80;;;;;;;;;;5042123;28;20040;-48
2023/02/03 19:39:51;;;;;;;5.95;3.40;;;;;;;;;;5043045;28;20025;-47
2023/02/03 19:42:17;;;;;;;6.60;3.65;;;;;;;;;;5044019;28;20052;-48
2023/02/03 19:44:43;;;;;;;4.75;3.17;;;;;;;;;;5044873;28;20068;-49
2023/02/03 19:47:09;;;;;;;8.07;3.40;;;;;;;;;;5046998;28;20029;-47
2023/02/03 19:49:35;;;;;;;5.82;3.03;;;;;;;;;;5048862;28;20463;-48
2023/02/03 19:52:01;;;;;;;7.03;3.22;;;;;;;;;;5047781;28;20120;-48
2023/02/03 19:54:27;;;;;;;5.22;2.97;;;;;;;;;;5048729;28;20040;-51
2023/02/03 19:56:53;;;;;;;8.18;2.95;;;;;;;;;;5048065;28;20095;-47
2023/02/03 19:59:19;;;;;;;5.53;2.70;;;;;;;;;;5057408;28;20663;-50
2023/02/03 20:01:45;;;;;;;3.05;1.98;;;;;;;;;;5049176;28;20051;-47
2023/02/03 20:04:11;;;;;;;3.08;2.03;;;;;;;;;;5047822;28;20025;-49
2023/02/03 20:06:38;;;;;;;6.15;2.75;;;;;;;;;;5048624;28;20029;-48
2023/02/03 20:09:05;;;;;;;6.55;3.80;;;;;;;;;;5048439;28;20021;-47
2023/02/03 20:11:31;;;;;;;4.80;2.78;;;;;;;;;;5045328;28;20060;-50
2023/02/03 20:13:57;;;;;;;6.95;2.90;;;;;;;;;;5045671;28;20079;-51
2023/02/03 20:16:23;;;;;;;6.93;2.38;;;;;;;;;;5046401;28;20040;-52
2023/02/03 20:18:49;;;;;;;5.22;2.60;;;;;;;;;;5038688;28;20033;-49
2023/02/03 20:21:15;;;;;;;5.93;2.50;;;;;;;;;;5027088;28;20491;-47
2023/02/03 20:23:41;;;;;;;4.18;2.35;;;;;;;;;;5044342;28;20077;-48
2023/02/03 20:26:08;;;;;;;3.47;2.28;;;;;;;;;;5045970;28;20021;-49
2023/02/03 20:28:34;;;;;;;5.38;2.28;;;;;;;;;;5046539;28;20483;-49